Udine, Italy

12:30 PM CET en Diciembre 09, 2016 (GMT +0100)
Viale Trieste | | Change Station

Alt 492 ft 46.12 °N, 13.21 °E | Updated 4 minutes ago

Despejado
Despejado
48.9 ° F
Sensación térmica 49 ° F
N
1.2
Viento Variable Viento desde SSE
Gusts 5.0 mph

Hoy
Alta -- | Baja -- ° F
--% Posibilidad de precipitaciones
Ayer
Alta -- | Baja -- ° F
Precip. -- pul
Presión 30.48 pul
Visibilidad -9999.0 Millas
Nubes
Vientos helados 49 ° F
Punto de rocío 43 ° F
Humedad 80%
Precipitaciones 0.00 pul
Espesor de la nieve No disponible.
7:37 AM 4:21 PM
Gibosa creciente, 73% visible
METAR LIPQ 091120Z VRB01KT CAVOK 11/01 Q1032
Presión 30.48 pul
Visibilidad -9999.0 Millas
Nubes
Vientos helados 49 ° F
Punto de rocío 43 ° F
Humedad 80%
Precipitaciones 0.00 pul
Espesor de la nieve No disponible.
7:37 AM 4:21 PM
Gibosa creciente, 73% visible
METAR LIPQ 091120Z VRB01KT CAVOK 11/01 Q1032

10-Day Weather Forecast

×

Almanac

Astronomía

Dec. 09, 2016 Salida Puesta
Hora real
Crepúsculo civil
Crepúsculo náutico
Crepúsculo astronómico
Luna
Horas de luz
Horas de luz
Tomorrow will be .
, % of the Moon is Illuminated

Extremos de hoy

Máximos del país Bajas del país

Community

WunderPhotos

Upload Photos

1,956,378 ¡fotos cargadas!

WunderBlog® & News

Nearby

Calidad del aire

  Calidad del aire Índice AQ Contaminante
Not available.

Grosos de nieve

Estación Profundido Altura

Actividad de terremotos

Ciudad Distance Mag. Tiempo y dato
Magnitud mínima muestra es 2,5.

Temperaturas de aguas costeras

Lugar Temperatura

Stations

Estaciones meteorológicas cercanas

Ubicación de la estación Temp. Vientos helados Punto de rocío Humedad Viento Precip. Alt Actualizado Tipo